sensor_id;sensor_type;location;lat;lon;timestamp;P1;durP1;ratioP1;P2;durP2;ratioP2
74963;SDS011;63521;51.900;4.748;2022-10-16T00:01:24;1.65;;;0.90;;
74963;SDS011;63521;51.900;4.748;2022-10-16T00:03:51;2.22;;;0.90;;
74963;SDS011;63521;51.900;4.748;2022-10-16T00:06:17;1.75;;;0.88;;
74963;SDS011;63521;51.900;4.748;2022-10-16T00:08:44;1.30;;;1.00;;
74963;SDS011;63521;51.900;4.748;2022-10-16T00:11:11;0.85;;;0.80;;
74963;SDS011;63521;51.900;4.748;2022-10-16T00:13:42;1.17;;;0.90;;
74963;SDS011;63521;51.900;4.748;2022-10-16T00:16:08;1.52;;;0.82;;
74963;SDS011;63521;51.900;4.748;2022-10-16T00:18:37;0.98;;;0.75;;
74963;SDS011;63521;51.900;4.748;2022-10-16T00:21:04;1.88;;;1.05;;
74963;SDS011;63521;51.900;4.748;2022-10-16T00:23:31;1.23;;;0.70;;
74963;SDS011;63521;51.900;4.748;2022-10-16T00:26:01;0.80;;;0.80;;
74963;SDS011;63521;51.900;4.748;2022-10-16T00:30:53;1.45;;;0.80;;
74963;SDS011;63521;51.900;4.748;2022-10-16T00:33:19;0.70;;;0.70;;
74963;SDS011;63521;51.900;4.748;2022-10-16T00:35:45;1.10;;;0.70;;
74963;SDS011;63521;51.900;4.748;2022-10-16T00:38:10;0.80;;;0.77;;
74963;SDS011;63521;51.900;4.748;2022-10-16T00:40:36;1.42;;;0.90;;
74963;SDS011;63521;51.900;4.748;2022-10-16T00:43:01;1.27;;;0.90;;
74963;SDS011;63521;51.900;4.748;2022-10-16T00:45:26;1.42;;;0.88;;
74963;SDS011;63521;51.900;4.748;2022-10-16T00:47:52;1.95;;;1.23;;
74963;SDS011;63521;51.900;4.748;2022-10-16T00:50:30;1.33;;;0.90;;
74963;SDS011;63521;51.900;4.748;2022-10-16T00:52:57;1.05;;;0.60;;
74963;SDS011;63521;51.900;4.748;2022-10-16T00:55:24;2.10;;;0.80;;
74963;SDS011;63521;51.900;4.748;2022-10-16T00:57:49;1.75;;;0.90;;
74963;SDS011;63521;51.900;4.748;2022-10-16T01:00:16;0.77;;;0.77;;
74963;SDS011;63521;51.900;4.748;2022-10-16T01:02:58;1.48;;;1.00;;
74963;SDS011;63521;51.900;4.748;2022-10-16T01:08:26;0.88;;;0.88;;
74963;SDS011;63521;51.900;4.748;2022-10-16T01:10:57;1.17;;;0.70;;
74963;SDS011;63521;51.900;4.748;2022-10-16T01:13:50;1.15;;;1.00;;
74963;SDS011;63521;51.900;4.748;2022-10-16T01:18:57;1.20;;;0.90;;
74963;SDS011;63521;51.900;4.748;2022-10-16T01:21:28;1.20;;;0.93;;
74963;SDS011;63521;51.900;4.748;2022-10-16T01:29:26;2.13;;;0.93;;
74963;SDS011;63521;51.900;4.748;2022-10-16T01:31:56;1.10;;;0.95;;
74963;SDS011;63521;51.900;4.748;2022-10-16T01:34:37;0.90;;;0.90;;
74963;SDS011;63521;51.900;4.748;2022-10-16T01:37:11;1.48;;;0.90;;
74963;SDS011;63521;51.900;4.748;2022-10-16T01:39:41;1.45;;;1.00;;
74963;SDS011;63521;51.900;4.748;2022-10-16T01:42:09;1.13;;;0.85;;
74963;SDS011;63521;51.900;4.748;2022-10-16T01:44:38;1.00;;;0.88;;
74963;SDS011;63521;51.900;4.748;2022-10-16T01:47:04;1.48;;;0.90;;
74963;SDS011;63521;51.900;4.748;2022-10-16T01:49:31;1.80;;;1.20;;
74963;SDS011;63521;51.900;4.748;2022-10-16T01:51:59;1.40;;;1.08;;
74963;SDS011;63521;51.900;4.748;2022-10-16T01:54:28;1.35;;;1.02;;
74963;SDS011;63521;51.900;4.748;2022-10-16T01:56:55;1.10;;;1.00;;
74963;SDS011;63521;51.900;4.748;2022-10-16T01:59:21;1.80;;;0.90;;
74963;SDS011;63521;51.900;4.748;2022-10-16T02:01:50;1.73;;;1.05;;
74963;SDS011;63521;51.900;4.748;2022-10-16T02:04:24;0.80;;;0.80;;
74963;SDS011;63521;51.900;4.748;2022-10-16T02:06:53;1.13;;;0.95;;
74963;SDS011;63521;51.900;4.748;2022-10-16T02:09:18;0.90;;;0.90;;
74963;SDS011;63521;51.900;4.748;2022-10-16T02:11:44;1.23;;;0.90;;
74963;SDS011;63521;51.900;4.748;2022-10-16T02:14:09;0.85;;;0.80;;
74963;SDS011;63521;51.900;4.748;2022-10-16T02:16:36;1.00;;;0.90;;
74963;SDS011;63521;51.900;4.748;2022-10-16T02:19:04;0.90;;;0.90;;
74963;SDS011;63521;51.900;4.748;2022-10-16T02:21:33;1.55;;;0.80;;
74963;SDS011;63521;51.900;4.748;2022-10-16T02:24:39;0.85;;;0.82;;
74963;SDS011;63521;51.900;4.748;2022-10-16T02:27:12;1.30;;;1.00;;
74963;SDS011;63521;51.900;4.748;2022-10-16T02:29:41;0.80;;;0.80;;
74963;SDS011;63521;51.900;4.748;2022-10-16T02:32:13;1.33;;;0.90;;
74963;SDS011;63521;51.900;4.748;2022-10-16T02:34:41;0.90;;;0.82;;
74963;SDS011;63521;51.900;4.748;2022-10-16T02:37:06;0.82;;;0.82;;
74963;SDS011;63521;51.900;4.748;2022-10-16T02:39:32;1.10;;;0.93;;
74963;SDS011;63521;51.900;4.748;2022-10-16T02:41:58;1.15;;;1.00;;
74963;SDS011;63521;51.900;4.748;2022-10-16T02:44:24;1.65;;;1.17;;
74963;SDS011;63521;51.900;4.748;2022-10-16T02:46:50;0.70;;;0.70;;
74963;SDS011;63521;51.900;4.748;2022-10-16T02:49:15;0.90;;;0.90;;
74963;SDS011;63521;51.900;4.748;2022-10-16T02:51:40;1.00;;;0.90;;
74963;SDS011;63521;51.900;4.748;2022-10-16T02:54:06;1.20;;;1.10;;
74963;SDS011;63521;51.900;4.748;2022-10-16T02:56:31;1.30;;;1.00;;
74963;SDS011;63521;51.900;4.748;2022-10-16T02:58:57;1.25;;;1.15;;
74963;SDS011;63521;51.900;4.748;2022-10-16T03:01:22;0.80;;;0.80;;
74963;SDS011;63521;51.900;4.748;2022-10-16T03:03:48;1.00;;;0.82;;
74963;SDS011;63521;51.900;4.748;2022-10-16T03:06:14;1.10;;;1.00;;
74963;SDS011;63521;51.900;4.748;2022-10-16T03:08:39;1.35;;;0.80;;
74963;SDS011;63521;51.900;4.748;2022-10-16T03:11:04;1.20;;;1.10;;
74963;SDS011;63521;51.900;4.748;2022-10-16T03:13:30;1.40;;;1.30;;
74963;SDS011;63521;51.900;4.748;2022-10-16T03:15:55;0.75;;;0.75;;
74963;SDS011;63521;51.900;4.748;2022-10-16T03:18:21;1.30;;;0.90;;
74963;SDS011;63521;51.900;4.748;2022-10-16T03:20:46;1.10;;;1.00;;
74963;SDS011;63521;51.900;4.748;2022-10-16T03:23:12;1.35;;;0.95;;
74963;SDS011;63521;51.900;4.748;2022-10-16T03:25:37;0.90;;;0.90;;
74963;SDS011;63521;51.900;4.748;2022-10-16T03:28:02;1.65;;;1.02;;
74963;SDS011;63521;51.900;4.748;2022-10-16T03:30:28;1.00;;;1.00;;
74963;SDS011;63521;51.900;4.748;2022-10-16T03:32:53;1.02;;;0.82;;
74963;SDS011;63521;51.900;4.748;2022-10-16T03:35:19;0.77;;;0.77;;
74963;SDS011;63521;51.900;4.748;2022-10-16T03:37:45;1.10;;;0.95;;
74963;SDS011;63521;51.900;4.748;2022-10-16T03:40:11;1.17;;;0.98;;
74963;SDS011;63521;51.900;4.748;2022-10-16T03:42:36;1.02;;;0.90;;
74963;SDS011;63521;51.900;4.748;2022-10-16T03:45:02;1.27;;;0.80;;
74963;SDS011;63521;51.900;4.748;2022-10-16T03:47:28;1.17;;;0.90;;
74963;SDS011;63521;51.900;4.748;2022-10-16T03:49:53;1.00;;;0.80;;
74963;SDS011;63521;51.900;4.748;2022-10-16T03:52:18;0.70;;;0.70;;
74963;SDS011;63521;51.900;4.748;2022-10-16T03:54:44;1.13;;;0.98;;
74963;SDS011;63521;51.900;4.748;2022-10-16T03:57:09;1.20;;;0.90;;
74963;SDS011;63521;51.900;4.748;2022-10-16T03:59:34;0.80;;;0.68;;
74963;SDS011;63521;51.900;4.748;2022-10-16T04:02:00;1.30;;;1.00;;
74963;SDS011;63521;51.900;4.748;2022-10-16T04:04:25;0.93;;;0.80;;
74963;SDS011;63521;51.900;4.748;2022-10-16T04:06:51;1.35;;;0.60;;
74963;SDS011;63521;51.900;4.748;2022-10-16T04:09:16;1.30;;;0.70;;
74963;SDS011;63521;51.900;4.748;2022-10-16T04:11:42;1.50;;;0.90;;
74963;SDS011;63521;51.900;4.748;2022-10-16T04:14:07;0.85;;;0.85;;
74963;SDS011;63521;51.900;4.748;2022-10-16T04:16:32;1.13;;;0.80;;
74963;SDS011;63521;51.900;4.748;2022-10-16T04:18:58;0.50;;;0.50;;
74963;SDS011;63521;51.900;4.748;2022-10-16T04:21:23;1.02;;;1.00;;
74963;SDS011;63521;51.900;4.748;2022-10-16T04:23:49;0.80;;;0.80;;
74963;SDS011;63521;51.900;4.748;2022-10-16T04:26:14;1.58;;;0.90;;
74963;SDS011;63521;51.900;4.748;2022-10-16T04:28:39;1.80;;;1.05;;
74963;SDS011;63521;51.900;4.748;2022-10-16T04:31:05;1.27;;;0.70;;
74963;SDS011;63521;51.900;4.748;2022-10-16T04:33:31;0.93;;;0.77;;
74963;SDS011;63521;51.900;4.748;2022-10-16T04:35:57;0.73;;;0.73;;
74963;SDS011;63521;51.900;4.748;2022-10-16T04:38:23;1.13;;;0.85;;
74963;SDS011;63521;51.900;4.748;2022-10-16T04:40:48;0.73;;;0.70;;
74963;SDS011;63521;51.900;4.748;2022-10-16T04:43:14;2.03;;;1.00;;
74963;SDS011;63521;51.900;4.748;2022-10-16T04:45:39;0.95;;;0.85;;
74963;SDS011;63521;51.900;4.748;2022-10-16T04:48:04;0.98;;;0.88;;
74963;SDS011;63521;51.900;4.748;2022-10-16T04:50:30;0.50;;;0.50;;
74963;SDS011;63521;51.900;4.748;2022-10-16T04:52:55;0.90;;;0.80;;
74963;SDS011;63521;51.900;4.748;2022-10-16T04:55:20;0.60;;;0.50;;
74963;SDS011;63521;51.900;4.748;2022-10-16T04:57:46;0.70;;;0.70;;
74963;SDS011;63521;51.900;4.748;2022-10-16T05:00:11;0.60;;;0.60;;
74963;SDS011;63521;51.900;4.748;2022-10-16T05:02:37;0.60;;;0.60;;
74963;SDS011;63521;51.900;4.748;2022-10-16T05:05:03;1.05;;;0.88;;
74963;SDS011;63521;51.900;4.748;2022-10-16T05:07:29;0.90;;;0.73;;
74963;SDS011;63521;51.900;4.748;2022-10-16T05:09:54;0.65;;;0.63;;
74963;SDS011;63521;51.900;4.748;2022-10-16T05:12:19;0.65;;;0.65;;
74963;SDS011;63521;51.900;4.748;2022-10-16T05:14:45;0.70;;;0.70;;
74963;SDS011;63521;51.900;4.748;2022-10-16T05:17:10;0.70;;;0.70;;
74963;SDS011;63521;51.900;4.748;2022-10-16T05:19:36;0.88;;;0.68;;
74963;SDS011;63521;51.900;4.748;2022-10-16T05:22:01;0.95;;;0.80;;
74963;SDS011;63521;51.900;4.748;2022-10-16T05:24:26;1.08;;;0.90;;
74963;SDS011;63521;51.900;4.748;2022-10-16T05:26:52;1.98;;;0.75;;
74963;SDS011;63521;51.900;4.748;2022-10-16T05:29:17;0.73;;;0.70;;
74963;SDS011;63521;51.900;4.748;2022-10-16T05:31:43;1.27;;;0.90;;
74963;SDS011;63521;51.900;4.748;2022-10-16T05:34:08;0.88;;;0.88;;
74963;SDS011;63521;51.900;4.748;2022-10-16T05:36:34;0.70;;;0.70;;
74963;SDS011;63521;51.900;4.748;2022-10-16T05:38:59;1.63;;;0.90;;
74963;SDS011;63521;51.900;4.748;2022-10-16T05:41:24;0.70;;;0.70;;
74963;SDS011;63521;51.900;4.748;2022-10-16T05:43:51;0.60;;;0.60;;
74963;SDS011;63521;51.900;4.748;2022-10-16T05:46:17;0.88;;;0.85;;
74963;SDS011;63521;51.900;4.748;2022-10-16T05:48:42;0.60;;;0.55;;
74963;SDS011;63521;51.900;4.748;2022-10-16T06:01:43;0.75;;;0.70;;
74963;SDS011;63521;51.900;4.748;2022-10-16T06:05:12;0.70;;;0.70;;
74963;SDS011;63521;51.900;4.748;2022-10-16T06:07:59;0.60;;;0.60;;
74963;SDS011;63521;51.900;4.748;2022-10-16T06:10:24;0.70;;;0.70;;
74963;SDS011;63521;51.900;4.748;2022-10-16T06:12:58;0.88;;;0.80;;
74963;SDS011;63521;51.900;4.748;2022-10-16T06:15:40;0.90;;;0.70;;
74963;SDS011;63521;51.900;4.748;2022-10-16T06:18:07;0.60;;;0.60;;
74963;SDS011;63521;51.900;4.748;2022-10-16T06:20:35;0.73;;;0.73;;
74963;SDS011;63521;51.900;4.748;2022-10-16T06:23:02;0.88;;;0.70;;
74963;SDS011;63521;51.900;4.748;2022-10-16T06:25:29;0.50;;;0.50;;
74963;SDS011;63521;51.900;4.748;2022-10-16T06:27:56;1.00;;;0.90;;
74963;SDS011;63521;51.900;4.748;2022-10-16T06:30:21;0.68;;;0.60;;
74963;SDS011;63521;51.900;4.748;2022-10-16T06:32:50;0.70;;;0.60;;
74963;SDS011;63521;51.900;4.748;2022-10-16T06:35:21;1.08;;;0.80;;
74963;SDS011;63521;51.900;4.748;2022-10-16T06:38:58;1.40;;;0.73;;
74963;SDS011;63521;51.900;4.748;2022-10-16T06:41:56;1.02;;;0.70;;
74963;SDS011;63521;51.900;4.748;2022-10-16T06:44:35;1.00;;;0.70;;
74963;SDS011;63521;51.900;4.748;2022-10-16T06:47:06;0.43;;;0.43;;
74963;SDS011;63521;51.900;4.748;2022-10-16T06:49:31;0.80;;;0.60;;
74963;SDS011;63521;51.900;4.748;2022-10-16T06:51:57;1.33;;;0.90;;
74963;SDS011;63521;51.900;4.748;2022-10-16T06:54:22;0.85;;;0.60;;
74963;SDS011;63521;51.900;4.748;2022-10-16T06:56:47;0.55;;;0.55;;
74963;SDS011;63521;51.900;4.748;2022-10-16T06:59:13;1.73;;;0.88;;
74963;SDS011;63521;51.900;4.748;2022-10-16T07:01:38;0.80;;;0.80;;
74963;SDS011;63521;51.900;4.748;2022-10-16T07:04:10;1.13;;;0.80;;
74963;SDS011;63521;51.900;4.748;2022-10-16T07:06:42;1.13;;;0.80;;
74963;SDS011;63521;51.900;4.748;2022-10-16T07:09:34;1.00;;;0.70;;
74963;SDS011;63521;51.900;4.748;2022-10-16T07:12:06;1.15;;;0.60;;
74963;SDS011;63521;51.900;4.748;2022-10-16T08:44:54;0.65;;;0.65;;
74963;SDS011;63521;51.900;4.748;2022-10-16T08:50:37;0.75;;;0.70;;
74963;SDS011;63521;51.900;4.748;2022-10-16T08:53:04;2.05;;;0.60;;
74963;SDS011;63521;51.900;4.748;2022-10-16T08:58:07;1.20;;;0.80;;
74963;SDS011;63521;51.900;4.748;2022-10-16T09:00:37;1.25;;;0.70;;
74963;SDS011;63521;51.900;4.748;2022-10-16T09:06:17;0.93;;;0.70;;
74963;SDS011;63521;51.900;4.748;2022-10-16T09:17:14;2.17;;;0.70;;
74963;SDS011;63521;51.900;4.748;2022-10-16T09:19:50;1.73;;;0.65;;
74963;SDS011;63521;51.900;4.748;2022-10-16T09:22:39;1.45;;;0.85;;
74963;SDS011;63521;51.900;4.748;2022-10-16T09:25:10;1.58;;;0.77;;
74963;SDS011;63521;51.900;4.748;2022-10-16T09:27:37;0.77;;;0.50;;
74963;SDS011;63521;51.900;4.748;2022-10-16T09:30:16;0.75;;;0.60;;
74963;SDS011;63521;51.900;4.748;2022-10-16T09:32:43;2.20;;;0.77;;
74963;SDS011;63521;51.900;4.748;2022-10-16T09:35:15;1.25;;;0.50;;
74963;SDS011;63521;51.900;4.748;2022-10-16T09:37:44;0.98;;;0.73;;
74963;SDS011;63521;51.900;4.748;2022-10-16T09:40:24;1.95;;;0.77;;
74963;SDS011;63521;51.900;4.748;2022-10-16T09:42:52;3.03;;;0.90;;
74963;SDS011;63521;51.900;4.748;2022-10-16T09:45:26;1.25;;;0.80;;
74963;SDS011;63521;51.900;4.748;2022-10-16T09:47:52;1.10;;;0.60;;
74963;SDS011;63521;51.900;4.748;2022-10-16T09:50:25;0.98;;;0.73;;
74963;SDS011;63521;51.900;4.748;2022-10-16T09:53:11;1.70;;;0.93;;
74963;SDS011;63521;51.900;4.748;2022-10-16T09:55:47;2.00;;;0.73;;
74963;SDS011;63521;51.900;4.748;2022-10-16T09:58:16;1.33;;;0.88;;
74963;SDS011;63521;51.900;4.748;2022-10-16T10:00:42;1.33;;;0.80;;
74963;SDS011;63521;51.900;4.748;2022-10-16T10:03:13;0.52;;;0.52;;
74963;SDS011;63521;51.900;4.748;2022-10-16T10:11:35;1.13;;;0.90;;
74963;SDS011;63521;51.900;4.748;2022-10-16T10:14:13;1.45;;;0.80;;
74963;SDS011;63521;51.900;4.748;2022-10-16T10:16:42;2.42;;;0.63;;
74963;SDS011;63521;51.900;4.748;2022-10-16T10:19:13;1.15;;;0.65;;
74963;SDS011;63521;51.900;4.748;2022-10-16T10:21:46;1.35;;;0.65;;
74963;SDS011;63521;51.900;4.748;2022-10-16T10:24:15;0.57;;;0.55;;
74963;SDS011;63521;51.900;4.748;2022-10-16T10:26:43;1.08;;;0.82;;
74963;SDS011;63521;51.900;4.748;2022-10-16T10:34:35;2.60;;;1.20;;
74963;SDS011;63521;51.900;4.748;2022-10-16T10:45:20;1.98;;;0.77;;
74963;SDS011;63521;51.900;4.748;2022-10-16T10:47:53;1.15;;;1.10;;
74963;SDS011;63521;51.900;4.748;2022-10-16T10:50:26;2.25;;;0.77;;
74963;SDS011;63521;51.900;4.748;2022-10-16T10:53:12;1.15;;;0.70;;
74963;SDS011;63521;51.900;4.748;2022-10-16T11:04:19;1.27;;;0.60;;
74963;SDS011;63521;51.900;4.748;2022-10-16T11:06:59;0.93;;;0.70;;
74963;SDS011;63521;51.900;4.748;2022-10-16T11:11:55;2.03;;;0.80;;
74963;SDS011;63521;51.900;4.748;2022-10-16T11:14:34;2.20;;;0.68;;
74963;SDS011;63521;51.900;4.748;2022-10-16T11:19:39;1.30;;;0.90;;
74963;SDS011;63521;51.900;4.748;2022-10-16T11:24:50;1.52;;;0.77;;
74963;SDS011;63521;51.900;4.748;2022-10-16T11:27:23;3.40;;;1.10;;
74963;SDS011;63521;51.900;4.748;2022-10-16T11:30:12;1.92;;;0.80;;
74963;SDS011;63521;51.900;4.748;2022-10-16T11:32:49;3.08;;;0.90;;
74963;SDS011;63521;51.900;4.748;2022-10-16T11:35:25;2.40;;;0.80;;
74963;SDS011;63521;51.900;4.748;2022-10-16T11:37:59;1.27;;;0.80;;
74963;SDS011;63521;51.900;4.748;2022-10-16T11:40:28;10.00;;;1.55;;
74963;SDS011;63521;51.900;4.748;2022-10-16T11:43:00;4.22;;;1.20;;
74963;SDS011;63521;51.900;4.748;2022-10-16T11:48:08;4.22;;;1.25;;
74963;SDS011;63521;51.900;4.748;2022-10-16T11:53:32;6.55;;;1.25;;
74963;SDS011;63521;51.900;4.748;2022-10-16T11:56:17;3.08;;;1.40;;
74963;SDS011;63521;51.900;4.748;2022-10-16T11:59:00;6.63;;;1.40;;
74963;SDS011;63521;51.900;4.748;2022-10-16T12:01:40;4.85;;;1.40;;
74963;SDS011;63521;51.900;4.748;2022-10-16T12:06:44;4.00;;;1.00;;
74963;SDS011;63521;51.900;4.748;2022-10-16T12:09:32;3.80;;;1.25;;
74963;SDS011;63521;51.900;4.748;2022-10-16T12:12:00;2.47;;;0.90;;
74963;SDS011;63521;51.900;4.748;2022-10-16T12:16:58;3.72;;;1.30;;
74963;SDS011;63521;51.900;4.748;2022-10-16T12:19:33;2.28;;;1.00;;
74963;SDS011;63521;51.900;4.748;2022-10-16T12:22:29;3.58;;;1.00;;
74963;SDS011;63521;51.900;4.748;2022-10-16T12:29:22;3.40;;;1.05;;
74963;SDS011;63521;51.900;4.748;2022-10-16T12:31:53;2.35;;;1.10;;
74963;SDS011;63521;51.900;4.748;2022-10-16T12:36:51;1.88;;;1.17;;
74963;SDS011;63521;51.900;4.748;2022-10-16T12:39:32;2.40;;;0.85;;
74963;SDS011;63521;51.900;4.748;2022-10-16T12:42:05;1.88;;;1.10;;
74963;SDS011;63521;51.900;4.748;2022-10-16T12:44:45;3.42;;;0.70;;
74963;SDS011;63521;51.900;4.748;2022-10-16T12:49:53;2.38;;;0.88;;
74963;SDS011;63521;51.900;4.748;2022-10-16T12:52:23;2.92;;;1.00;;
74963;SDS011;63521;51.900;4.748;2022-10-16T12:54:51;2.83;;;0.70;;
74963;SDS011;63521;51.900;4.748;2022-10-16T12:59:58;2.08;;;0.80;;
74963;SDS011;63521;51.900;4.748;2022-10-16T13:17:11;1.30;;;0.70;;
74963;SDS011;63521;51.900;4.748;2022-10-16T13:19:58;1.50;;;0.65;;
74963;SDS011;63521;51.900;4.748;2022-10-16T13:22:44;1.40;;;0.70;;
74963;SDS011;63521;51.900;4.748;2022-10-16T13:27:46;2.63;;;0.98;;
74963;SDS011;63521;51.900;4.748;2022-10-16T13:30:23;2.40;;;1.00;;
74963;SDS011;63521;51.900;4.748;2022-10-16T13:32:50;1.15;;;0.80;;
74963;SDS011;63521;51.900;4.748;2022-10-16T13:35:32;1.90;;;0.95;;
74963;SDS011;63521;51.900;4.748;2022-10-16T13:40:31;1.40;;;0.77;;
74963;SDS011;63521;51.900;4.748;2022-10-16T13:42:59;1.75;;;1.02;;
74963;SDS011;63521;51.900;4.748;2022-10-16T13:45:24;2.30;;;0.98;;
74963;SDS011;63521;51.900;4.748;2022-10-16T13:48:01;2.40;;;1.00;;
74963;SDS011;63521;51.900;4.748;2022-10-16T13:50:27;4.68;;;1.85;;
74963;SDS011;63521;51.900;4.748;2022-10-16T13:53:02;2.30;;;1.10;;
74963;SDS011;63521;51.900;4.748;2022-10-16T13:55:31;3.22;;;1.23;;
74963;SDS011;63521;51.900;4.748;2022-10-16T13:58:13;5.57;;;1.40;;
74963;SDS011;63521;51.900;4.748;2022-10-16T14:00:39;5.18;;;1.17;;
74963;SDS011;63521;51.900;4.748;2022-10-16T14:03:18;3.90;;;1.20;;
74963;SDS011;63521;51.900;4.748;2022-10-16T14:05:49;4.38;;;1.10;;
74963;SDS011;63521;51.900;4.748;2022-10-16T14:08:19;3.03;;;0.93;;
74963;SDS011;63521;51.900;4.748;2022-10-16T14:10:49;4.82;;;1.08;;
74963;SDS011;63521;51.900;4.748;2022-10-16T14:13:17;4.93;;;1.10;;
74963;SDS011;63521;51.900;4.748;2022-10-16T14:15:46;3.08;;;1.20;;
74963;SDS011;63521;51.900;4.748;2022-10-16T14:18:33;3.42;;;1.30;;
74963;SDS011;63521;51.900;4.748;2022-10-16T14:21:03;2.45;;;0.85;;
74963;SDS011;63521;51.900;4.748;2022-10-16T14:23:34;4.28;;;1.10;;
74963;SDS011;63521;51.900;4.748;2022-10-16T14:28:34;3.42;;;1.10;;
74963;SDS011;63521;51.900;4.748;2022-10-16T14:31:00;3.65;;;0.85;;
74963;SDS011;63521;51.900;4.748;2022-10-16T14:35:59;2.78;;;0.90;;
74963;SDS011;63521;51.900;4.748;2022-10-16T14:38:36;2.38;;;1.10;;
74963;SDS011;63521;51.900;4.748;2022-10-16T14:41:03;4.15;;;1.10;;
74963;SDS011;63521;51.900;4.748;2022-10-16T14:43:41;3.50;;;1.13;;
74963;SDS011;63521;51.900;4.748;2022-10-16T14:46:14;3.35;;;1.20;;
74963;SDS011;63521;51.900;4.748;2022-10-16T14:48:42;3.33;;;1.20;;
74963;SDS011;63521;51.900;4.748;2022-10-16T14:51:09;3.17;;;0.98;;
74963;SDS011;63521;51.900;4.748;2022-10-16T14:53:38;1.70;;;0.80;;
74963;SDS011;63521;51.900;4.748;2022-10-16T14:56:19;3.50;;;1.02;;
74963;SDS011;63521;51.900;4.748;2022-10-16T15:01:12;2.42;;;0.82;;
74963;SDS011;63521;51.900;4.748;2022-10-16T15:03:38;2.45;;;1.50;;
74963;SDS011;63521;51.900;4.748;2022-10-16T15:06:04;1.70;;;0.90;;
74963;SDS011;63521;51.900;4.748;2022-10-16T15:11:00;1.43;;;0.90;;
74963;SDS011;63521;51.900;4.748;2022-10-16T15:13:25;2.47;;;0.98;;
74963;SDS011;63521;51.900;4.748;2022-10-16T15:15:51;3.20;;;1.13;;
74963;SDS011;63521;51.900;4.748;2022-10-16T15:18:18;2.80;;;1.10;;
74963;SDS011;63521;51.900;4.748;2022-10-16T15:20:45;2.25;;;0.80;;
74963;SDS011;63521;51.900;4.748;2022-10-16T15:23:16;2.03;;;0.80;;
74963;SDS011;63521;51.900;4.748;2022-10-16T15:25:44;1.40;;;1.05;;
74963;SDS011;63521;51.900;4.748;2022-10-16T15:28:11;1.60;;;0.70;;
74963;SDS011;63521;51.900;4.748;2022-10-16T15:30:37;1.13;;;0.88;;
74963;SDS011;63521;51.900;4.748;2022-10-16T15:33:03;2.80;;;0.80;;
74963;SDS011;63521;51.900;4.748;2022-10-16T15:35:29;1.88;;;1.10;;
74963;SDS011;63521;51.900;4.748;2022-10-16T15:37:55;2.20;;;0.85;;
74963;SDS011;63521;51.900;4.748;2022-10-16T15:40:21;0.98;;;0.80;;
74963;SDS011;63521;51.900;4.748;2022-10-16T15:42:48;1.30;;;0.73;;
74963;SDS011;63521;51.900;4.748;2022-10-16T15:45:13;2.53;;;1.00;;
74963;SDS011;63521;51.900;4.748;2022-10-16T15:47:40;2.65;;;0.90;;
74963;SDS011;63521;51.900;4.748;2022-10-16T15:50:06;3.25;;;1.00;;
74963;SDS011;63521;51.900;4.748;2022-10-16T15:52:33;2.20;;;0.80;;
74963;SDS011;63521;51.900;4.748;2022-10-16T15:54:59;2.05;;;0.82;;
74963;SDS011;63521;51.900;4.748;2022-10-16T15:57:24;2.97;;;1.00;;
74963;SDS011;63521;51.900;4.748;2022-10-16T15:59:50;3.22;;;0.82;;
74963;SDS011;63521;51.900;4.748;2022-10-16T16:02:15;1.33;;;0.90;;
74963;SDS011;63521;51.900;4.748;2022-10-16T16:04:41;1.17;;;0.70;;
74963;SDS011;63521;51.900;4.748;2022-10-16T16:07:06;2.58;;;0.88;;
74963;SDS011;63521;51.900;4.748;2022-10-16T16:09:35;2.88;;;1.13;;
74963;SDS011;63521;51.900;4.748;2022-10-16T16:12:00;1.65;;;0.73;;
74963;SDS011;63521;51.900;4.748;2022-10-16T16:14:26;2.15;;;0.80;;
74963;SDS011;63521;51.900;4.748;2022-10-16T16:16:53;1.70;;;1.00;;
74963;SDS011;63521;51.900;4.748;2022-10-16T16:19:19;3.67;;;1.42;;
74963;SDS011;63521;51.900;4.748;2022-10-16T16:21:46;1.52;;;0.80;;
74963;SDS011;63521;51.900;4.748;2022-10-16T16:24:14;1.38;;;1.05;;
74963;SDS011;63521;51.900;4.748;2022-10-16T16:26:40;1.60;;;0.98;;
74963;SDS011;63521;51.900;4.748;2022-10-16T16:29:09;1.10;;;0.80;;
74963;SDS011;63521;51.900;4.748;2022-10-16T16:31:36;1.55;;;0.80;;
74963;SDS011;63521;51.900;4.748;2022-10-16T16:34:02;1.45;;;0.77;;
74963;SDS011;63521;51.900;4.748;2022-10-16T16:36:28;2.10;;;0.80;;
74963;SDS011;63521;51.900;4.748;2022-10-16T16:38:54;0.88;;;0.77;;
74963;SDS011;63521;51.900;4.748;2022-10-16T16:41:21;1.17;;;0.90;;
74963;SDS011;63521;51.900;4.748;2022-10-16T16:43:50;0.82;;;0.82;;
74963;SDS011;63521;51.900;4.748;2022-10-16T16:46:16;1.25;;;1.00;;
74963;SDS011;63521;51.900;4.748;2022-10-16T16:48:41;1.15;;;0.88;;
74963;SDS011;63521;51.900;4.748;2022-10-16T16:51:08;1.33;;;0.77;;
74963;SDS011;63521;51.900;4.748;2022-10-16T16:53:36;1.77;;;0.90;;
74963;SDS011;63521;51.900;4.748;2022-10-16T16:56:02;1.55;;;0.80;;
74963;SDS011;63521;51.900;4.748;2022-10-16T16:58:30;1.52;;;0.98;;
74963;SDS011;63521;51.900;4.748;2022-10-16T17:00:57;2.45;;;0.90;;
74963;SDS011;63521;51.900;4.748;2022-10-16T17:03:30;2.53;;;1.10;;
74963;SDS011;63521;51.900;4.748;2022-10-16T17:08:23;1.75;;;0.80;;
74963;SDS011;63521;51.900;4.748;2022-10-16T17:10:49;1.00;;;0.90;;
74963;SDS011;63521;51.900;4.748;2022-10-16T17:13:18;1.00;;;1.00;;
74963;SDS011;63521;51.900;4.748;2022-10-16T17:15:47;0.80;;;0.80;;
74963;SDS011;63521;51.900;4.748;2022-10-16T17:18:13;1.77;;;0.98;;
74963;SDS011;63521;51.900;4.748;2022-10-16T17:20:38;1.70;;;1.23;;
74963;SDS011;63521;51.900;4.748;2022-10-16T17:23:04;1.67;;;0.88;;
74963;SDS011;63521;51.900;4.748;2022-10-16T17:25:29;1.85;;;0.70;;
74963;SDS011;63521;51.900;4.748;2022-10-16T17:27:54;2.35;;;1.00;;
74963;SDS011;63521;51.900;4.748;2022-10-16T17:30:20;1.73;;;1.00;;
74963;SDS011;63521;51.900;4.748;2022-10-16T17:32:45;1.38;;;0.82;;
74963;SDS011;63521;51.900;4.748;2022-10-16T17:35:10;1.10;;;0.90;;
74963;SDS011;63521;51.900;4.748;2022-10-16T17:37:36;2.45;;;1.00;;
74963;SDS011;63521;51.900;4.748;2022-10-16T17:40:02;1.38;;;0.80;;
74963;SDS011;63521;51.900;4.748;2022-10-16T17:42:27;1.30;;;1.17;;
74963;SDS011;63521;51.900;4.748;2022-10-16T17:44:53;1.88;;;0.85;;
74963;SDS011;63521;51.900;4.748;2022-10-16T17:47:18;1.25;;;0.70;;
74963;SDS011;63521;51.900;4.748;2022-10-16T17:49:43;1.67;;;1.15;;
74963;SDS011;63521;51.900;4.748;2022-10-16T17:52:09;1.98;;;0.90;;
74963;SDS011;63521;51.900;4.748;2022-10-16T17:54:34;1.80;;;0.82;;
74963;SDS011;63521;51.900;4.748;2022-10-16T17:56:59;1.73;;;0.90;;
74963;SDS011;63521;51.900;4.748;2022-10-16T17:59:25;2.08;;;0.98;;
74963;SDS011;63521;51.900;4.748;2022-10-16T18:01:50;1.67;;;0.90;;
74963;SDS011;63521;51.900;4.748;2022-10-16T18:04:16;0.90;;;0.90;;
74963;SDS011;63521;51.900;4.748;2022-10-16T18:06:42;1.08;;;0.88;;
74963;SDS011;63521;51.900;4.748;2022-10-16T18:09:09;2.67;;;0.90;;
74963;SDS011;63521;51.900;4.748;2022-10-16T18:11:35;3.55;;;1.20;;
74963;SDS011;63521;51.900;4.748;2022-10-16T18:14:00;2.83;;;0.90;;
74963;SDS011;63521;51.900;4.748;2022-10-16T18:16:27;2.92;;;0.70;;
74963;SDS011;63521;51.900;4.748;2022-10-16T18:18:53;2.78;;;0.88;;
74963;SDS011;63521;51.900;4.748;2022-10-16T18:21:21;2.20;;;1.23;;
74963;SDS011;63521;51.900;4.748;2022-10-16T18:23:46;2.47;;;0.85;;
74963;SDS011;63521;51.900;4.748;2022-10-16T18:26:13;1.15;;;0.90;;
74963;SDS011;63521;51.900;4.748;2022-10-16T18:28:39;1.48;;;0.98;;
74963;SDS011;63521;51.900;4.748;2022-10-16T18:31:10;2.20;;;0.80;;
74963;SDS011;63521;51.900;4.748;2022-10-16T18:33:37;1.60;;;0.90;;
74963;SDS011;63521;51.900;4.748;2022-10-16T18:36:04;0.98;;;0.90;;
74963;SDS011;63521;51.900;4.748;2022-10-16T18:38:31;0.85;;;0.70;;
74963;SDS011;63521;51.900;4.748;2022-10-16T18:40:57;0.98;;;0.93;;
74963;SDS011;63521;51.900;4.748;2022-10-16T18:43:26;1.48;;;1.08;;